Time;durP1;ratioP1;P1;durP2;ratioP2;P2;SDS_P1;SDS_P2;PMS_P1;PMS_P2;Temp;Humidity;BMP_temperature;BMP_pressure;BME280_temperature;BME280_humidity;BME280_pressure;Samples;Min_cycle;Max_cycle;Signal;HPM_P1;HPM_P2
2021/09/16 00:04:36;;;;;;;14.45;5.15;;;;;;;16.12;98.76;100983.44;10185523;28;20170;-67
2021/09/16 00:09:33;;;;;;;16.67;5.53;;;;;;;16.02;98.90;100983.94;10190078;28;20074;-69
2021/09/16 00:14:29;;;;;;;13.23;4.65;;;;;;;16.09;99.07;100986.09;10189468;28;20050;-66
2021/09/16 00:19:26;;;;;;;16.00;5.10;;;;;;;16.04;99.14;100989.91;10190988;28;20566;-70
2021/09/16 00:24:22;;;;;;;13.93;5.75;;;;;;;16.04;98.97;101000.94;10188954;28;20074;-67
2021/09/16 00:29:19;;;;;;;10.77;5.35;;;;;;;16.09;99.15;100997.94;10190512;28;20041;-68
2021/09/16 00:34:15;;;;;;;19.63;5.32;;;;;;;16.05;98.70;100999.78;10191183;28;20120;-68
2021/09/16 00:39:12;;;;;;;21.85;7.95;;;;;;;16.05;98.63;100999.78;10187124;28;20100;-70
2021/09/16 00:44:08;;;;;;;13.13;5.18;;;;;;;16.02;98.35;101003.25;10188915;28;20045;-68
2021/09/16 00:49:06;;;;;;;11.63;4.95;;;;;;;15.98;98.12;101002.31;10189241;28;20125;-68
2021/09/16 00:54:05;;;;;;;15.25;6.07;;;;;;;15.94;98.08;101009.69;10188964;28;20111;-69
2021/09/16 00:59:04;;;;;;;14.27;5.60;;;;;;;15.96;97.77;101004.63;10186392;28;20085;-67
2021/09/16 01:04:00;;;;;;;14.73;4.88;;;;;;;15.97;97.66;101011.75;10182756;28;20042;-68
2021/09/16 01:08:57;;;;;;;14.18;5.25;;;;;;;15.96;97.78;101010.13;10187656;28;20240;-69
2021/09/16 01:13:56;;;;;;;12.27;5.20;;;;;;;16.02;97.31;101003.25;10188622;28;20072;-69
2021/09/16 01:18:53;;;;;;;14.10;4.53;;;;;;;15.97;97.17;101006.25;10189099;28;20399;-67
2021/09/16 01:23:50;;;;;;;15.88;5.22;;;;;;;15.92;96.50;101003.69;10187085;28;20046;-65
2021/09/16 01:28:46;;;;;;;13.05;5.28;;;;;;;15.90;96.57;101000.53;10187920;28;20078;-70
2021/09/16 01:33:43;;;;;;;16.88;7.05;;;;;;;15.87;96.99;101012.22;10186278;28;20633;-69
2021/09/16 01:38:39;;;;;;;14.27;5.22;;;;;;;15.84;96.68;101001.91;10185926;28;20065;-67
2021/09/16 01:43:36;;;;;;;10.25;4.85;;;;;;;15.83;96.36;101027.84;10185947;28;20125;-67
2021/09/16 01:48:32;;;;;;;11.77;4.22;;;;;;;15.81;95.91;101019.13;10186026;28;20096;-68
2021/09/16 01:53:29;;;;;;;9.18;3.63;;;;;;;15.83;95.66;101017.63;10187145;28;20041;-68
2021/09/16 01:58:25;;;;;;;10.45;3.85;;;;;;;15.80;95.38;101017.50;10187056;28;20104;-68
2021/09/16 02:03:21;;;;;;;12.35;4.43;;;;;;;15.77;95.21;101025.31;10185840;28;20085;-68
2021/09/16 02:08:18;;;;;;;9.65;3.60;;;;;;;15.73;95.00;101016.16;10185710;28;20053;-69
2021/09/16 02:13:14;;;;;;;26.30;5.45;;;;;;;15.64;94.17;101015.44;10187737;28;20088;-68
2021/09/16 02:18:11;;;;;;;10.35;3.13;;;;;;;15.68;93.98;101008.06;10186134;28;20046;-69
2021/09/16 02:23:07;;;;;;;10.15;2.72;;;;;;;15.56;93.55;101021.84;10191901;28;20654;-68
2021/09/16 02:28:04;;;;;;;8.13;2.53;;;;;;;15.56;93.37;101024.63;10193020;28;20129;-69
2021/09/16 02:33:04;;;;;;;7.50;2.10;;;;;;;15.49;92.53;101027.13;10196151;28;20073;-68
2021/09/16 02:38:01;;;;;;;5.38;1.27;;;;;;;15.47;91.81;101032.19;10193590;28;20046;-68
2021/09/16 02:42:57;;;;;;;10.38;1.83;;;;;;;15.47;91.71;101027.47;10192783;28;20607;-66
2021/09/16 02:47:54;;;;;;;6.97;1.40;;;;;;;15.38;91.31;101032.28;10195333;28;20647;-68
2021/09/16 02:52:50;;;;;;;8.90;1.60;;;;;;;15.35;90.83;101031.03;10194458;28;20065;-68
2021/09/16 02:57:47;;;;;;;9.73;1.35;;;;;;;15.36;90.08;101031.81;10191869;28;20103;-70
2021/09/16 03:02:43;;;;;;;7.28;1.25;;;;;;;15.29;90.00;101026.91;10192951;28;20038;-70
2021/09/16 03:07:40;;;;;;;5.95;1.00;;;;;;;15.22;90.38;101032.13;10191874;28;20511;-70
2021/09/16 03:12:36;;;;;;;8.88;1.63;;;;;;;15.21;90.32;101046.28;10191716;28;20069;-70
2021/09/16 03:17:33;;;;;;;4.07;0.95;;;;;;;15.20;90.09;101039.13;10189175;28;20495;-69
2021/09/16 03:22:30;;;;;;;7.68;1.65;;;;;;;15.14;89.87;101036.63;10188762;28;20054;-67
2021/09/16 03:27:26;;;;;;;8.93;1.23;;;;;;;15.11;90.03;101045.56;10189853;28;20042;-71
2021/09/16 03:32:23;;;;;;;3.05;1.08;;;;;;;15.17;89.64;101045.34;10191916;28;20045;-67
2021/09/16 03:37:19;;;;;;;7.32;1.48;;;;;;;15.04;89.75;101047.25;10191921;28;20041;-66
2021/09/16 03:42:16;;;;;;;7.72;1.10;;;;;;;15.10;89.12;101045.91;10191079;28;20515;-66
2021/09/16 03:47:14;;;;;;;5.95;1.15;;;;;;;15.01;88.77;101043.22;10188205;28;20112;-70
2021/09/16 03:52:11;;;;;;;8.93;1.15;;;;;;;15.01;88.91;101047.94;10190090;28;20391;-69
2021/09/16 03:57:08;;;;;;;5.60;1.10;;;;;;;14.99;88.27;101052.97;10188287;28;20631;-69
2021/09/16 04:02:04;;;;;;;8.13;0.93;;;;;;;15.00;88.05;101051.84;10184574;28;20038;-68
2021/09/16 04:07:01;;;;;;;9.70;1.30;;;;;;;15.01;87.80;101058.94;10185261;28;20042;-69
2021/09/16 04:11:58;;;;;;;8.02;1.15;;;;;;;15.03;88.13;101051.16;10174510;28;20062;-69
2021/09/16 04:16:55;;;;;;;5.53;0.93;;;;;;;14.99;87.13;101055.72;10181723;28;20065;-67
2021/09/16 04:21:51;;;;;;;4.75;1.17;;;;;;;14.90;87.47;101058.59;10188455;28;20172;-67
2021/09/16 04:26:48;;;;;;;3.45;0.70;;;;;;;14.85;87.04;101059.59;10182806;28;20108;-67
2021/09/16 04:31:44;;;;;;;6.47;0.90;;;;;;;14.86;87.16;101058.44;10183648;28;20088;-68
2021/09/16 04:36:41;;;;;;;8.45;1.20;;;;;;;14.78;87.53;101051.06;10190671;28;20072;-70
2021/09/16 04:41:37;;;;;;;6.60;1.13;;;;;;;14.82;87.10;101054.75;10188104;28;20076;-68
2021/09/16 04:46:34;;;;;;;5.60;0.70;;;;;;;14.79;87.73;101058.19;10184600;28;20129;-68
2021/09/16 04:51:30;;;;;;;4.10;0.90;;;;;;;14.78;87.50;101062.06;10183803;28;20046;-69
2021/09/16 04:56:27;;;;;;;5.50;0.90;;;;;;;14.74;87.84;101066.66;10183484;28;20089;-69
2021/09/16 05:01:23;;;;;;;8.43;1.05;;;;;;;14.76;87.69;101069.06;10183393;28;20049;-69
2021/09/16 05:06:20;;;;;;;5.60;0.88;;;;;;;14.56;87.91;101065.19;10181027;28;20045;-70
2021/09/16 05:11:16;;;;;;;6.97;1.25;;;;;;;14.52;88.48;101071.31;10183591;28;20685;-69
2021/09/16 05:16:13;;;;;;;9.13;2.13;;;;;;;14.49;88.27;101076.72;10177725;28;20120;-67
2021/09/16 05:21:09;;;;;;;7.93;1.60;;;;;;;14.49;88.50;101066.50;10184270;28;20069;-68
2021/09/16 05:26:06;;;;;;;5.88;1.45;;;;;;;14.52;89.12;101065.03;10183620;28;20459;-68
2021/09/16 05:31:02;;;;;;;10.65;2.30;;;;;;;14.49;88.75;101071.22;10184231;28;20619;-68
2021/09/16 05:35:59;;;;;;;9.25;2.08;;;;;;;14.41;89.38;101067.41;10182804;28;20050;-68
2021/09/16 05:40:56;;;;;;;9.93;2.20;;;;;;;14.47;89.64;101074.28;10185212;28;20539;-69
2021/09/16 05:45:52;;;;;;;9.48;2.50;;;;;;;14.44;89.89;101074.16;10186079;28;20562;-68
2021/09/16 05:50:49;;;;;;;11.32;3.28;;;;;;;14.47;90.36;101081.75;10184244;28;20046;-69
2021/09/16 05:55:46;;;;;;;8.23;3.65;;;;;;;14.44;90.29;101077.72;10184204;28;20729;-68
2021/09/16 06:00:43;;;;;;;9.25;3.70;;;;;;;14.45;90.39;101082.06;10183626;28;20092;-68
2021/09/16 06:05:40;;;;;;;14.55;5.05;;;;;;;14.50;90.10;101073.63;10183381;28;20073;-68
2021/09/16 06:10:36;;;;;;;11.57;4.20;;;;;;;14.51;90.30;101077.97;10180940;28;20046;-67
2021/09/16 06:15:33;;;;;;;14.02;5.05;;;;;;;14.52;89.96;101076.03;10180073;28;20527;-67
2021/09/16 06:20:29;;;;;;;10.25;4.70;;;;;;;14.45;90.41;101076.56;10186958;28;20072;-69
2021/09/16 06:25:28;;;;;;;9.55;3.97;;;;;;;14.56;90.46;101098.22;10182480;28;20096;-67
2021/09/16 06:30:25;;;;;;;12.90;4.93;;;;;;;14.58;90.75;101093.19;10184234;28;21052;-69
2021/09/16 06:35:21;;;;;;;11.27;4.75;;;;;;;14.62;90.64;101103.19;10184236;28;20137;-68
2021/09/16 06:40:18;;;;;;;10.57;5.15;;;;;;;14.64;90.47;101094.56;10184873;28;20108;-69
2021/09/16 06:45:15;;;;;;;11.68;4.80;;;;;;;14.71;90.75;101094.84;10185332;28;20104;-70
2021/09/16 06:50:16;;;;;;;10.35;5.05;;;;;;;14.67;90.32;101096.69;10179995;28;20696;-70
2021/09/16 06:55:12;;;;;;;12.30;4.90;;;;;;;14.70;90.35;101104.25;10182786;28;20046;-68
2021/09/16 07:00:09;;;;;;;10.18;4.90;;;;;;;14.71;90.95;101103.09;10181841;28;20614;-69
2021/09/16 07:05:06;;;;;;;12.40;5.15;;;;;;;14.68;90.90;101107.34;10177459;28;20415;-67
2021/09/16 07:10:03;;;;;;;12.95;5.30;;;;;;;14.74;91.38;101110.69;10189027;28;20076;-67
2021/09/16 07:15:00;;;;;;;13.57;6.15;;;;;;;14.77;92.22;101104.50;10193359;28;20037;-67
2021/09/16 07:19:56;;;;;;;16.90;6.30;;;;;;;14.71;92.30;101101.19;10191561;28;20506;-67
2021/09/16 07:24:53;;;;;;;10.02;6.20;;;;;;;14.66;92.85;101115.13;10192822;28;20034;-68
2021/09/16 07:29:49;;;;;;;14.23;6.78;;;;;;;14.64;93.14;101122.09;10185544;28;20050;-68
2021/09/16 07:34:46;;;;;;;10.43;5.80;;;;;;;14.75;92.82;101126.06;10188737;28;20038;-69
2021/09/16 07:39:42;;;;;;;11.85;5.65;;;;;;;14.83;92.46;101125.19;10189690;28;20474;-69
2021/09/16 07:44:39;;;;;;;11.70;6.35;;;;;;;14.93;92.64;101118.47;10189338;28;20042;-69
2021/09/16 07:49:35;;;;;;;11.57;5.75;;;;;;;15.01;92.62;101125.84;10191056;28;20046;-70
2021/09/16 07:54:32;;;;;;;13.52;5.20;;;;;;;15.05;92.29;101131.47;10188066;28;20132;-69
2021/09/16 07:59:28;;;;;;;8.95;4.47;;;;;;;15.03;91.56;101133.78;10185376;28;20046;-68
2021/09/16 08:04:25;;;;;;;11.45;5.55;;;;;;;15.03;91.95;101142.81;10190440;28;20121;-69
2021/09/16 08:09:21;;;;;;;9.57;4.50;;;;;;;15.05;92.36;101134.25;10187297;28;20100;-69
2021/09/16 08:14:18;;;;;;;9.15;4.63;;;;;;;15.12;91.73;101131.75;10189592;28;20038;-69
2021/09/16 08:19:14;;;;;;;10.40;3.75;;;;;;;15.25;92.05;101135.34;10188219;28;20125;-70
2021/09/16 08:24:11;;;;;;;7.88;3.70;;;;;;;15.32;91.22;101141.13;10190801;28;20077;-68
2021/09/16 08:29:07;;;;;;;12.23;3.97;;;;;;;15.40;91.21;101136.66;10191402;28;20080;-69
2021/09/16 08:34:04;;;;;;;11.90;3.35;;;;;;;15.50;90.71;101149.97;10190399;28;20583;-69
2021/09/16 08:39:00;;;;;;;12.98;3.47;;;;;;;15.52;89.66;101139.44;10190561;28;20074;-69
2021/09/16 08:43:58;;;;;;;8.32;2.63;;;;;;;15.58;89.64;101143.59;10187252;28;20092;-69
2021/09/16 08:48:54;;;;;;;9.65;2.90;;;;;;;15.63;89.45;101151.63;10185639;28;20069;-69
2021/09/16 08:53:52;;;;;;;9.48;2.20;;;;;;;15.73;89.08;101142.97;10187760;28;20045;-69
2021/09/16 08:58:49;;;;;;;5.65;2.20;;;;;;;15.89;88.01;101121.00;10185151;28;20096;-70
2021/09/16 09:03:46;;;;;;;5.30;1.90;;;;;;;16.10;87.33;101120.09;10187804;28;20352;-69
2021/09/16 09:08:43;;;;;;;7.57;2.08;;;;;;;16.20;86.58;101120.44;10183942;28;20042;-69
2021/09/16 09:13:42;;;;;;;6.75;2.10;;;;;;;16.31;86.26;101125.47;10189218;28;20125;-69
2021/09/16 09:18:40;;;;;;;8.88;1.83;;;;;;;16.25;85.77;101124.13;10186409;28;20050;-68
2021/09/16 09:23:51;;;;;;;5.65;2.35;;;;;;;16.30;85.43;101132.16;10190389;28;20069;-70
2021/09/16 09:28:50;;;;;;;9.68;1.60;;;;;;;16.27;86.04;101119.03;10185105;28;20073;-70
2021/09/16 09:33:47;;;;;;;7.43;2.53;;;;;;;16.34;85.54;101130.31;10186950;28;20049;-70
2021/09/16 09:39:13;;;;;;;9.52;2.05;;;;;;;16.44;84.24;101124.31;10183682;28;20427;-70
2021/09/16 09:44:14;;;;;;;4.72;2.25;;;;;;;16.68;83.58;101123.44;10179506;28;20424;-70
2021/09/16 09:49:14;;;;;;;7.53;2.30;;;;;;;16.76;83.66;101125.28;10179588;28;20099;-68
2021/09/16 09:54:28;;;;;;;8.57;2.58;;;;;;;16.80;83.88;101130.91;10185537;28;20045;-68
2021/09/16 09:59:25;;;;;;;;;;;;;;;16.83;83.90;101119.19;10183948;28;20046;-69
2021/09/16 10:04:27;;;;;;;6.32;1.95;;;;;;;16.88;83.62;101124.47;10186380;28;19975;-69
2021/09/16 10:09:24;;;;;;;6.38;2.50;;;;;;;17.01;82.94;101117.75;10183190;28;20042;-69
2021/09/16 10:14:20;;;;;;;5.97;1.70;;;;;;;17.04;81.92;101133.59;10186618;28;20141;-69
2021/09/16 10:19:17;;;;;;;7.75;2.13;;;;;;;16.94;80.76;101125.84;10186811;28;20046;-68
2021/09/16 10:24:17;;;;;;;8.73;1.95;;;;;;;16.97;80.91;101130.66;10185400;28;20034;-68
2021/09/16 10:29:28;;;;;;;7.22;2.05;;;;;;;17.04;81.23;101130.84;10180645;28;20100;-68
2021/09/16 10:34:45;;;;;;;9.25;1.73;;;;;;;17.12;79.80;101142.09;10184116;28;20053;-68
2021/09/16 10:39:43;;;;;;;5.57;1.35;;;;;;;17.18;78.74;101135.16;10183800;28;20046;-69
2021/09/16 10:44:42;;;;;;;4.95;1.67;;;;;;;17.15;77.49;101146.91;10186976;28;20069;-68
2021/09/16 10:49:38;;;;;;;8.48;1.77;;;;;;;17.14;77.72;101159.13;10192480;28;20551;-67
2021/09/16 10:54:56;;;;;;;5.43;1.38;;;;;;;17.16;77.62;101131.94;10191994;28;20073;-67
2021/09/16 10:59:52;;;;;;;7.47;1.60;;;;;;;17.21;78.01;101148.28;10190653;28;20088;-68
2021/09/16 11:04:55;;;;;;;5.22;1.42;;;;;;;17.18;76.95;101135.16;10190590;28;20712;-66
2021/09/16 11:09:52;;;;;;;6.80;1.40;;;;;;;17.20;76.87;101127.34;10173951;28;20046;-69
2021/09/16 11:14:56;;;;;;;5.68;1.55;;;;;;;17.28;76.67;101129.13;10195426;28;20129;-69
2021/09/16 11:19:53;;;;;;;4.28;1.40;;;;;;;17.35;76.57;101139.56;10192167;28;20099;-69
2021/09/16 11:24:54;;;;;;;4.65;1.50;;;;;;;17.60;75.73;101141.03;10192968;28;20100;-68
2021/09/16 11:29:52;;;;;;;4.45;1.08;;;;;;;17.77;74.83;101133.53;10184417;28;20049;-69
2021/09/16 11:34:56;;;;;;;5.60;1.60;;;;;;;17.89;74.69;101136.25;10192260;28;20038;-67
2021/09/16 11:39:55;;;;;;;6.53;1.30;;;;;;;17.92;72.90;101134.75;10189008;28;20396;-69
2021/09/16 11:45:14;;;;;;;6.50;1.20;;;;;;;17.95;72.40;101140.34;10188841;28;20042;-66
2021/09/16 11:50:35;;;;;;;5.60;1.20;;;;;;;17.87;72.63;101144.91;10186868;28;20057;-67
2021/09/16 11:55:40;;;;;;;6.20;1.10;;;;;;;17.77;73.20;101139.06;10188150;28;20042;-69
2021/09/16 12:00:39;;;;;;;4.18;0.80;;;;;;;17.58;74.61;101159.94;10185211;28;20080;-69
2021/09/16 12:05:40;;;;;;;6.63;1.58;;;;;;;17.20;79.26;101177.06;10188747;28;20073;-68
2021/09/16 12:10:46;;;;;;;7.55;1.65;;;;;;;16.57;84.48;101167.31;10188408;28;20141;-67
2021/09/16 12:15:44;;;;;;;6.57;1.38;;;;;;;16.67;85.49;101176.28;10187592;28;20475;-68
2021/09/16 12:20:41;;;;;;;5.18;1.25;;;;;;;16.73;83.92;101163.81;10189646;28;20065;-69
2021/09/16 12:25:48;;;;;;;4.82;1.17;;;;;;;16.80;84.60;101158.53;10184913;28;20145;-67
2021/09/16 12:30:46;;;;;;;5.78;1.10;;;;;;;16.75;84.73;101161.50;10188534;28;20766;-69
2021/09/16 12:35:42;;;;;;;5.95;1.23;;;;;;;16.71;85.36;101171.66;10189678;28;20073;-67
2021/09/16 12:40:38;;;;;;;4.57;1.02;;;;;;;16.28;86.03;101186.88;10186888;28;20045;-68
2021/09/16 12:45:35;;;;;;;6.25;1.10;;;;;;;16.40;87.84;101181.34;10188008;28;20076;-69
2021/09/16 12:50:32;;;;;;;8.25;1.30;;;;;;;17.15;87.91;101177.28;10185671;28;20423;-69
2021/09/16 12:55:29;;;;;;;7.40;1.42;;;;;;;17.08;84.28;101168.81;10186987;28;20042;-69
2021/09/16 13:00:25;;;;;;;5.07;1.40;;;;;;;16.99;84.56;101155.97;10187114;28;20523;-67
2021/09/16 13:05:30;;;;;;;5.88;1.67;;;;;;;16.96;82.87;101145.59;10185560;28;20076;-68
2021/09/16 13:10:27;;;;;;;3.90;1.10;;;;;;;17.10;82.88;101147.16;10185371;28;20078;-67
2021/09/16 13:15:24;;;;;;;6.80;1.33;;;;;;;16.97;83.34;101174.84;10188882;28;20464;-68
2021/09/16 13:20:23;;;;;;;7.68;1.33;;;;;;;17.32;81.70;101152.13;10189244;28;20049;-69
2021/09/16 13:25:21;;;;;;;5.03;1.10;;;;;;;17.32;80.10;101151.34;10185496;28;20125;-69
2021/09/16 13:30:18;;;;;;;8.15;1.33;;;;;;;17.37;79.83;101143.59;10184936;28;20112;-66
2021/09/16 13:35:15;;;;;;;4.28;1.38;;;;;;;17.29;79.76;101147.31;10190468;28;20104;-67
2021/09/16 13:40:13;;;;;;;7.53;1.83;;;;;;;17.30;78.12;101154.44;10186438;28;20092;-67
2021/09/16 13:45:11;;;;;;;3.78;1.10;;;;;;;17.22;78.15;101141.59;10185669;28;20056;-68
2021/09/16 13:50:13;;;;;;;8.27;1.73;;;;;;;17.29;78.89;101141.78;10184302;28;20049;-69
2021/09/16 13:55:10;;;;;;;6.50;1.38;;;;;;;17.44;78.27;101135.47;10189141;28;20535;-68
2021/09/16 14:00:08;;;;;;;5.25;1.10;;;;;;;17.39;77.26;101132.97;10187265;28;20050;-68
2021/09/16 14:05:07;;;;;;;9.32;1.52;;;;;;;17.32;77.64;101156.88;10184795;28;20050;-69
2021/09/16 14:10:05;;;;;;;7.97;1.42;;;;;;;16.97;80.06;101163.78;10185388;28;20103;-67
2021/09/16 14:15:02;;;;;;;4.82;1.02;;;;;;;17.14;79.47;101134.25;10184439;28;20046;-69
2021/09/16 14:19:59;;;;;;;5.30;1.20;;;;;;;17.23;79.39;101148.72;10187385;28;20045;-69
2021/09/16 14:24:55;;;;;;;6.60;1.42;;;;;;;17.24;77.91;101144.78;10184126;28;20042;-68
2021/09/16 14:29:54;;;;;;;6.10;1.67;;;;;;;17.19;78.31;101132.03;10182789;28;20069;-68
2021/09/16 14:34:51;;;;;;;7.05;1.30;;;;;;;17.27;78.07;101138.56;10184977;28;20096;-68
2021/09/16 14:39:47;;;;;;;8.52;1.63;;;;;;;17.35;78.65;101134.84;10183416;28;20092;-68
2021/09/16 14:44:44;;;;;;;10.18;1.40;;;;;;;17.35;77.93;101129.31;10184537;28;20037;-68
2021/09/16 14:49:40;;;;;;;6.03;1.00;;;;;;;17.35;76.88;101128.50;10184086;28;20563;-68
2021/09/16 14:54:37;;;;;;;6.50;1.02;;;;;;;17.29;77.08;101135.44;10183456;28;20076;-68
2021/09/16 14:59:34;;;;;;;7.53;1.10;;;;;;;17.27;76.81;101133.06;10188230;28;20440;-68
2021/09/16 15:04:30;;;;;;;5.55;1.35;;;;;;;17.19;77.46;101131.22;10180316;28;20053;-66
2021/09/16 15:09:27;;;;;;;7.15;1.30;;;;;;;17.15;77.57;101133.09;10176238;28;20534;-69
2021/09/16 15:14:23;;;;;;;7.80;1.60;;;;;;;17.08;78.12;101130.13;10171931;28;20081;-68
2021/09/16 15:19:20;;;;;;;10.02;1.27;;;;;;;17.06;78.78;101132.44;10184331;28;20077;-68
2021/09/16 15:24:17;;;;;;;8.23;1.77;;;;;;;16.81;82.00;101143.59;10183751;28;20082;-67
2021/09/16 15:29:14;;;;;;;7.07;1.40;;;;;;;16.47;85.86;101162.25;10188395;28;20076;-70
2021/09/16 15:34:10;;;;;;;8.60;1.90;;;;;;;16.40;87.48;101167.56;10189381;28;20101;-68
2021/09/16 15:39:07;;;;;;;6.00;1.50;;;;;;;16.36;88.67;101163.88;10191100;28;20120;-68
2021/09/16 15:44:03;;;;;;;10.93;1.80;;;;;;;16.27;89.41;101168.72;10182728;28;20096;-69
2021/09/16 15:49:00;;;;;;;7.05;1.40;;;;;;;16.22;89.37;101160.66;10186575;28;20723;-68
2021/09/16 15:53:57;;;;;;;4.68;1.85;;;;;;;16.17;88.67;101158.94;10190050;28;20100;-68
2021/09/16 15:58:53;;;;;;;4.75;1.00;;;;;;;16.18;88.48;101177.91;10189434;28;20046;-68
2021/09/16 16:03:50;;;;;;;4.32;1.08;;;;;;;16.19;88.28;101162.97;10190451;28;20104;-69
2021/09/16 16:08:47;;;;;;;4.47;1.10;;;;;;;16.20;88.12;101170.09;10189079;28;20056;-69
2021/09/16 16:13:43;;;;;;;5.82;1.23;;;;;;;16.29;88.16;101177.44;10190462;28;20045;-68
2021/09/16 16:18:40;;;;;;;6.80;1.08;;;;;;;16.27;88.64;101174.22;10189053;28;20049;-68
2021/09/16 16:23:36;;;;;;;8.32;1.38;;;;;;;16.24;87.79;101180.44;10191279;28;20074;-68
2021/09/16 16:28:33;;;;;;;4.47;1.20;;;;;;;16.28;87.61;101175.84;10179842;28;20042;-69
2021/09/16 16:33:29;;;;;;;5.90;1.30;;;;;;;16.18;87.79;101183.44;10191583;28;20500;-68
2021/09/16 16:38:26;;;;;;;3.33;1.08;;;;;;;16.13;88.12;101180.91;10189962;28;20050;-69
2021/09/16 16:43:22;;;;;;;5.43;1.52;;;;;;;16.16;87.50;101169.19;10189110;28;20050;-67
2021/09/16 16:48:19;;;;;;;7.28;1.67;;;;;;;16.06;87.55;101174.34;10185624;28;20046;-67
2021/09/16 16:53:16;;;;;;;6.35;1.27;;;;;;;16.10;87.82;101170.53;10187173;28;20400;-68
2021/09/16 16:58:13;;;;;;;9.18;1.42;;;;;;;16.02;87.63;101179.75;10184540;28;20507;-67
2021/09/16 17:03:09;;;;;;;7.28;1.42;;;;;;;16.03;87.75;101173.06;10186452;28;20469;-67
2021/09/16 17:08:08;;;;;;;8.45;2.03;;;;;;;16.06;87.71;101179.84;10171053;28;20125;-68
2021/09/16 17:13:04;;;;;;;7.88;1.58;;;;;;;16.04;87.42;101171.94;10187870;28;20392;-69
2021/09/16 17:18:01;;;;;;;6.72;1.73;;;;;;;16.05;87.68;101176.31;10183871;28;20061;-68
2021/09/16 17:22:57;;;;;;;12.60;3.78;;;;;;;15.96;89.16;101192.16;10191120;28;20038;-68
2021/09/16 17:27:57;;;;;;;16.17;2.70;;;;;;;15.87;90.56;101188.69;10185629;28;20045;-67
2021/09/16 17:32:54;;;;;;;7.82;1.60;;;;;;;15.80;91.18;101185.69;10185808;28;20459;-69
2021/09/16 17:37:51;;;;;;;9.52;2.50;;;;;;;15.71;91.73;101188.53;10185581;28;20069;-66
2021/09/16 17:42:48;;;;;;;10.15;1.85;;;;;;;15.72;91.75;101185.44;10186449;28;20080;-68
2021/09/16 17:47:44;;;;;;;5.47;1.60;;;;;;;15.73;91.29;101184.31;10186425;28;20072;-68
2021/09/16 17:52:41;;;;;;;14.20;2.35;;;;;;;15.72;90.97;101176.38;10186061;28;20045;-68
2021/09/16 17:57:39;;;;;;;7.75;1.90;;;;;;;15.66;90.55;101184.00;10183247;28;20455;-68
2021/09/16 18:02:36;;;;;;;7.20;1.40;;;;;;;15.75;90.13;101182.00;10187492;28;20492;-69
2021/09/16 18:07:33;;;;;;;9.20;1.80;;;;;;;15.72;90.49;101190.97;10185888;28;20052;-68
2021/09/16 18:12:30;;;;;;;12.07;1.70;;;;;;;15.63;91.26;101195.72;10183332;28;20497;-68
2021/09/16 18:17:27;;;;;;;9.98;1.73;;;;;;;15.61;91.74;101197.22;10180354;28;20140;-66
2021/09/16 18:22:24;;;;;;;8.93;2.17;;;;;;;15.60;91.38;101196.41;10181993;28;20057;-67
2021/09/16 18:27:20;;;;;;;7.28;1.27;;;;;;;15.65;91.08;101198.97;10182106;28;20042;-67
2021/09/16 18:32:18;;;;;;;9.88;2.10;;;;;;;15.63;91.25;101206.75;10180694;28;20123;-67
2021/09/16 18:37:15;;;;;;;8.38;1.40;;;;;;;15.69;91.15;101199.91;10181637;28;20108;-67
2021/09/16 18:42:11;;;;;;;8.65;2.25;;;;;;;15.66;91.54;101199.75;10181479;28;21385;-67
2021/09/16 18:47:08;;;;;;;7.32;1.60;;;;;;;15.65;91.68;101204.47;10182487;28;20053;-68
2021/09/16 18:52:04;;;;;;;8.32;1.30;;;;;;;15.61;91.87;101203.53;10182067;28;20042;-68
2021/09/16 18:57:01;;;;;;;8.40;2.15;;;;;;;15.60;91.84;101217.66;10183406;28;20070;-68
2021/09/16 19:01:57;;;;;;;9.40;2.15;;;;;;;15.63;91.87;101223.28;10184042;28;20699;-67
2021/09/16 19:06:55;;;;;;;10.65;2.90;;;;;;;15.58;91.84;101221.56;10186939;28;20085;-68
2021/09/16 19:11:51;;;;;;;8.70;1.52;;;;;;;15.62;91.84;101223.63;10186768;28;20114;-68
2021/09/16 19:16:48;;;;;;;12.80;2.15;;;;;;;15.50;92.05;101224.38;10184194;28;20050;-68
2021/09/16 19:21:46;;;;;;;5.07;1.13;;;;;;;15.57;92.40;101230.97;10189417;28;20122;-68
2021/09/16 19:26:43;;;;;;;8.20;2.17;;;;;;;15.53;92.69;101223.72;10188630;28;20092;-68
2021/09/16 19:31:39;;;;;;;9.05;1.50;;;;;;;15.53;92.93;101229.25;10189791;28;20037;-68
2021/09/16 19:36:39;;;;;;;8.82;1.60;;;;;;;15.56;92.90;101234.06;10191869;28;20053;-68
2021/09/16 19:41:35;;;;;;;6.43;2.10;;;;;;;15.57;92.85;101235.66;10190004;28;20432;-68
2021/09/16 19:46:32;;;;;;;10.10;1.85;;;;;;;15.60;92.82;101228.69;10191449;28;20084;-68
2021/09/16 19:51:29;;;;;;;10.02;1.55;;;;;;;15.59;93.09;101236.13;10183396;28;20130;-68
2021/09/16 19:56:27;;;;;;;7.18;1.48;;;;;;;15.57;92.95;101230.97;10186200;28;20049;-68
2021/09/16 20:01:23;;;;;;;14.98;3.00;;;;;;;15.50;93.53;101251.94;10187132;28;20137;-67
2021/09/16 20:06:20;;;;;;;10.75;2.05;;;;;;;15.48;93.39;101249.56;10193616;28;20045;-68
2021/09/16 20:11:17;;;;;;;10.57;2.78;;;;;;;15.44;93.38;101245.06;10186643;28;20092;-67
2021/09/16 20:16:14;;;;;;;8.75;1.95;;;;;;;15.35;94.54;101256.94;10189641;28;20133;-67
2021/09/16 20:21:11;;;;;;;8.55;2.22;;;;;;;15.30;94.42;101265.41;10187347;28;20065;-67
2021/09/16 20:26:08;;;;;;;8.68;1.27;;;;;;;15.33;94.33;101264.72;10180482;28;20100;-67
2021/09/16 20:31:04;;;;;;;7.55;2.08;;;;;;;15.35;93.77;101265.22;10186400;28;20408;-68
2021/09/16 20:36:01;;;;;;;8.15;2.20;;;;;;;15.25;93.56;101262.88;10189291;28;20052;-67
2021/09/16 20:40:57;;;;;;;9.18;1.70;;;;;;;15.23;93.74;101265.16;10189417;28;20436;-68
2021/09/16 20:45:54;;;;;;;8.18;1.40;;;;;;;15.25;93.43;101262.06;10188383;28;20093;-68
2021/09/16 20:50:53;;;;;;;4.97;1.30;;;;;;;15.21;93.24;101261.13;10185887;28;20096;-70
2021/09/16 20:55:50;;;;;;;7.28;1.25;;;;;;;15.17;93.81;101266.47;10187556;28;20492;-69
2021/09/16 21:00:46;;;;;;;4.85;1.00;;;;;;;15.18;94.01;101262.59;10185695;28;20038;-68
2021/09/16 21:05:43;;;;;;;7.13;0.80;;;;;;;15.18;94.19;101262.59;10187644;28;20037;-68
2021/09/16 21:10:40;;;;;;;8.82;1.30;;;;;;;15.24;94.04;101266.75;10184558;28;20093;-68
2021/09/16 21:15:37;;;;;;;7.00;0.90;;;;;;;15.24;93.89;101275.00;10183033;28;20042;-68
2021/09/16 21:20:33;;;;;;;5.30;0.80;;;;;;;15.27;94.05;101271.59;10185560;28;20050;-68
2021/09/16 21:25:30;;;;;;;8.70;1.10;;;;;;;15.24;93.87;101276.97;10182072;28;20073;-71
2021/09/16 21:30:26;;;;;;;7.35;1.10;;;;;;;15.23;93.80;101281.69;10188684;28;20049;-69
2021/09/16 21:35:24;;;;;;;6.22;1.55;;;;;;;15.21;94.17;101283.97;10186519;28;20046;-67
2021/09/16 21:40:21;;;;;;;6.45;1.10;;;;;;;15.15;93.48;101271.50;10185197;28;20049;-67
2021/09/16 21:45:17;;;;;;;7.18;1.10;;;;;;;15.15;93.75;101268.75;10187492;28;20053;-67
2021/09/16 21:50:14;;;;;;;7.45;1.15;;;;;;;15.14;94.81;101272.66;10186773;28;20049;-67
2021/09/16 21:55:14;;;;;;;7.50;1.10;;;;;;;15.16;95.19;101281.41;10186824;28;20136;-67
2021/09/16 22:00:13;;;;;;;6.85;1.17;;;;;;;15.13;95.01;101288.41;10185195;28;20116;-69
2021/09/16 22:05:16;;;;;;;8.23;1.30;;;;;;;15.07;95.42;101284.22;10179140;28;20046;-68
2021/09/16 22:10:12;;;;;;;9.27;1.25;;;;;;;15.07;95.26;101277.91;10179519;28;20069;-69
2021/09/16 22:15:09;;;;;;;12.05;1.50;;;;;;;15.04;93.83;101278.56;10182033;28;20455;-68
2021/09/16 22:20:06;;;;;;;7.95;1.17;;;;;;;15.02;93.33;101280.88;10188610;28;20112;-69
2021/09/16 22:25:03;;;;;;;7.13;0.85;;;;;;;15.01;93.08;101279.25;10184434;28;20037;-67
2021/09/16 22:30:01;;;;;;;5.82;0.93;;;;;;;15.02;92.43;101278.13;10185743;28;20049;-66
2021/09/16 22:34:58;;;;;;;8.52;1.08;;;;;;;15.02;91.94;101286.38;10191371;28;20049;-68
2021/09/16 22:39:54;;;;;;;6.97;0.95;;;;;;;14.98;90.60;101290.94;10191191;28;20069;-68
2021/09/16 22:44:51;;;;;;;8.95;0.98;;;;;;;14.91;89.94;101292.25;10183767;28;20081;-68